Terminal Aerodrome Forecast
Issued by NWS

Home | Current Version | Previous Version | Text Only | Print | Product List | Glossary On
Versions: 1 2 3 4 5 6 7 8 9 10 11 12 13 14 15 16 17 18 19 20 21 22 23 24
000
FTUS45 KBOI 251125
TAFMYL
TAF
KMYL 251125Z 2512/2612 VRB03KT P6SM -SHRA BKN080
     FM251700 18010KT P6SM VCSH SCT100
     FM260200 35006KT P6SM VCTS BKN100CB
      TEMPO 2603/2605 VRB15G25KT TSRA BKN080CB
     FM260500 VRB06KT P6SM BKN120=

USA.gov is the U.S. government's official web portal to all federal, state and local government web resources and services.